Time;durP1;ratioP1;P1;durP2;ratioP2;P2;SDS_P1;SDS_P2;PMS_P1;PMS_P2;Temp;Humidity;BMP_temperature;BMP_pressure;BME280_temperature;BME280_humidity;BME280_pressure;Samples;Min_cycle;Max_cycle;Signal;HPM_P1;HPM_P2
2022/10/06 00:00:17;;;;;;;8.88;4.95;;;;;;;15.02;69.58;101922.72;4916471;29;20044;-94
2022/10/06 00:02:43;;;;;;;6.55;4.25;;;;;;;14.66;69.56;101872.34;4886699;29;20041;-94
2022/10/06 00:05:08;;;;;;;12.38;5.47;;;;;;;15.14;69.67;101959.69;4904089;29;20052;-93
2022/10/06 00:07:35;;;;;;;10.50;5.32;;;;;;;14.93;69.61;101926.16;4884418;29;20153;-91
2022/10/06 00:10:00;;;;;;;10.73;5.03;;;;;;;14.66;69.95;101888.59;4881746;29;20040;-92
2022/10/06 00:12:26;;;;;;;7.55;4.40;;;;;;;14.92;70.09;101943.41;4900165;29;20055;-91
2022/10/06 00:14:51;;;;;;;6.45;4.55;;;;;;;14.75;70.16;101927.63;4902977;29;20083;-92
2022/10/06 00:17:18;;;;;;;15.63;5.03;;;;;;;14.77;70.38;101917.50;4901525;29;20607;-91
2022/10/06 00:19:44;;;;;;;11.55;5.05;;;;;;;14.56;70.45;101886.69;4885351;29;20131;-93
2022/10/06 00:22:09;;;;;;;11.68;4.97;;;;;;;14.30;70.33;101848.13;4919004;29;20084;-93
2022/10/06 00:24:35;;;;;;;32.03;5.82;;;;;;;14.69;70.67;101930.81;4927583;29;20108;-93
2022/10/06 00:27:00;;;;;;;9.27;5.22;;;;;;;14.75;70.68;101943.88;4931969;29;20036;-91
2022/10/06 00:29:26;;;;;;;14.52;5.50;;;;;;;14.82;70.83;101950.53;4941928;29;20039;-92
2022/10/06 00:31:55;;;;;;;6.43;4.78;;;;;;;15.03;70.93;101994.91;4957207;29;20483;-93
2022/10/06 00:34:21;;;;;;;8.48;4.68;;;;;;;14.94;71.22;101997.47;4995346;23;20844;-93
2022/10/06 00:36:47;;;;;;;19.00;6.72;;;;;;;14.42;70.87;101905.88;4962147;28;20110;-92
2022/10/06 00:39:12;;;;;;;12.38;7.53;;;;;;;14.58;71.01;101933.50;4961664;28;20074;-93
2022/10/06 00:41:38;;;;;;;24.58;10.68;;;;;;;14.99;70.74;102004.25;4960762;28;20027;-92
2022/10/06 00:44:04;;;;;;;36.47;20.10;;;;;;;14.47;70.13;101915.34;4960265;28;20038;-91
2022/10/06 00:46:46;;;;;;;30.48;16.42;;;;;;;14.14;70.06;101863.78;4960371;28;20031;-91
2022/10/06 00:49:32;;;;;;;56.03;26.00;;;;;;;14.86;70.29;101997.22;4960369;28;20038;-92
2022/10/06 00:52:10;;;;;;;54.10;27.65;;;;;;;14.30;70.31;101915.78;4959268;28;20031;-93
2022/10/06 00:54:36;;;;;;;80.35;34.53;;;;;;;14.26;70.07;101916.09;4959818;28;20063;-94
2022/10/06 00:57:03;;;;;;;63.55;33.17;;;;;;;14.68;70.41;101989.50;4961355;28;20070;-94
2022/10/06 00:59:29;;;;;;;62.10;31.30;;;;;;;14.54;70.19;101970.78;4963753;28;20435;-94
2022/10/06 01:02:19;;;;;;;63.03;33.50;;;;;;;14.60;70.51;101981.13;4976127;28;20029;-92
2022/10/06 01:04:49;;;;;;;54.25;29.88;;;;;;;14.31;70.47;101935.59;4978410;28;20047;-93
2022/10/06 01:07:17;;;;;;;65.78;28.58;;;;;;;13.86;70.64;101872.28;4981956;28;20017;-95
2022/10/06 01:09:43;;;;;;;46.38;23.58;;;;;;;13.86;70.71;101866.88;4981800;28;20053;-93
2022/10/06 01:12:09;;;;;;;34.40;17.30;;;;;;;14.15;70.77;101904.28;4981194;28;20027;-96
2022/10/06 01:14:38;;;;;;;29.88;11.90;;;;;;;14.36;70.79;101944.25;4981452;28;20019;-94
2022/10/06 01:17:15;;;;;;;19.30;9.80;;;;;;;13.76;71.11;101836.94;4980765;28;20014;-93
2022/10/06 01:19:53;;;;;;;22.52;9.23;;;;;;;14.08;70.81;101892.19;4970925;28;20051;-92
2022/10/06 01:22:31;;;;;;;26.63;10.05;;;;;;;13.73;70.96;101853.41;4959489;28;20035;-93
2022/10/06 01:24:57;;;;;;;11.52;6.50;;;;;;;14.10;71.32;101911.00;4959671;28;20026;-94
2022/10/06 01:27:26;;;;;;;19.85;7.18;;;;;;;14.15;70.93;101909.69;4959163;28;20066;-93
2022/10/06 01:29:54;;;;;;;26.92;6.60;;;;;;;14.25;70.80;101925.22;4958667;28;20057;-93
2022/10/06 01:32:22;;;;;;;23.67;6.20;;;;;;;14.02;70.98;101879.13;4958556;28;20027;-93
2022/10/06 01:34:47;;;;;;;19.58;6.05;;;;;;;14.03;70.96;101880.88;4959235;28;20070;-93
2022/10/06 01:37:13;;;;;;;71.05;9.73;;;;;;;14.18;71.22;101906.75;4960543;28;20039;-93
2022/10/06 01:39:39;;;;;;;27.55;10.23;;;;;;;14.04;71.74;101877.16;4959542;28;20118;-92
2022/10/06 01:42:05;;;;;;;20.48;7.78;;;;;;;13.82;72.28;101843.75;4960449;28;20034;-92
2022/10/06 01:44:33;;;;;;;22.55;8.77;;;;;;;14.52;72.05;101966.47;4959333;28;20054;-92
2022/10/06 01:46:58;;;;;;;16.25;8.73;;;;;;;14.06;72.07;101877.06;4958108;28;20039;-91
2022/10/06 01:49:24;;;;;;;20.77;8.55;;;;;;;14.21;71.99;101915.59;4958023;28;20042;-91
2022/10/06 01:51:49;;;;;;;24.20;10.90;;;;;;;14.28;71.62;101914.16;4958085;28;20031;-91
2022/10/06 01:54:15;;;;;;;25.25;10.85;;;;;;;14.30;71.65;101906.78;4958719;28;20054;-93
2022/10/06 01:56:41;;;;;;;29.75;15.90;;;;;;;13.86;71.45;101832.56;4959360;28;20066;-95
2022/10/06 01:59:07;;;;;;;42.75;22.35;;;;;;;14.40;71.31;101934.91;4959228;28;20034;-93
2022/10/06 02:01:32;;;;;;;52.63;28.83;;;;;;;14.41;71.19;101932.06;4959185;28;20041;-93
2022/10/06 02:03:58;;;;;;;46.92;27.05;;;;;;;14.37;70.84;101932.44;4962994;28;20186;-93
2022/10/06 02:06:23;;;;;;;52.00;30.60;;;;;;;14.53;70.73;101951.91;4963331;28;20041;-93
2022/10/06 02:08:49;;;;;;;70.78;36.80;;;;;;;14.16;70.47;101906.00;4967131;28;20059;-95
2022/10/06 02:13:49;;;;;;;89.40;47.58;;;;;;;14.34;70.62;101938.09;4994844;23;20177;-92
2022/10/06 02:16:15;;;;;;;130.77;64.88;;;;;;;14.38;70.52;101948.56;4969642;28;20023;-92
2022/10/06 02:18:46;;;;;;;130.95;69.00;;;;;;;14.21;70.08;101916.47;4969712;28;20129;-93
2022/10/06 02:21:18;;;;;;;132.43;72.75;;;;;;;13.93;70.30;101878.97;4967286;28;20015;-93
2022/10/06 02:23:44;;;;;;;141.77;78.07;;;;;;;13.82;70.25;101852.72;5001988;23;20058;-93
2022/10/06 02:26:10;;;;;;;138.93;77.78;;;;;;;13.49;69.82;101806.59;4982346;28;20031;-93
2022/10/06 02:28:36;;;;;;;150.13;78.78;;;;;;;13.48;69.77;101792.22;4981516;28;20027;-94
2022/10/06 02:31:07;;;;;;;158.82;72.00;;;;;;;13.48;69.90;101799.47;4981119;28;20030;-93
2022/10/06 02:33:33;;;;;;;123.55;66.18;;;;;;;13.80;70.05;101860.09;4980608;28;20015;-94
2022/10/06 02:35:59;;;;;;;112.45;60.70;;;;;;;13.75;70.20;101865.00;4981608;28;20003;-93
2022/10/06 02:38:24;;;;;;;107.80;55.50;;;;;;;13.36;70.39;101784.19;4979472;28;20050;-92
2022/10/06 02:40:52;;;;;;;123.65;53.92;;;;;;;13.83;70.47;101865.25;4979245;28;20039;-92
2022/10/06 02:43:18;;;;;;;117.88;54.70;;;;;;;13.76;70.41;101858.56;4969027;29;20046;-93
2022/10/06 02:46:02;;;;;;;105.93;55.80;;;;;;;14.01;70.75;101907.16;4966271;29;20035;-92
2022/10/06 02:48:28;;;;;;;108.10;52.05;;;;;;;14.04;70.82;101911.47;4969653;29;20069;-92
2022/10/06 02:51:00;;;;;;;94.95;52.60;;;;;;;13.94;70.70;101895.06;4971962;29;20024;-93
2022/10/06 02:53:26;;;;;;;89.57;45.47;;;;;;;13.69;70.64;101851.94;4969652;29;20037;-94
2022/10/06 02:56:09;;;;;;;72.35;39.97;;;;;;;14.09;70.90;101922.81;4959763;29;20036;-93
2022/10/06 02:58:38;;;;;;;65.65;35.65;;;;;;;13.83;70.78;101880.63;4958810;29;20031;-93
2022/10/06 03:01:06;;;;;;;182.27;40.75;;;;;;;13.36;70.90;101789.56;4958993;28;20031;-94
2022/10/06 03:03:34;;;;;;;66.13;28.35;;;;;;;13.23;71.04;101783.34;4959551;29;20035;-94
2022/10/06 03:06:20;;;;;;;46.35;26.42;;;;;;;13.82;71.32;101895.97;4960545;29;20038;-94
2022/10/06 03:08:53;;;;;;;42.15;23.75;;;;;;;14.05;71.50;101934.84;4958582;29;20023;-94
2022/10/06 03:11:20;;;;;;;38.15;19.42;;;;;;;13.92;71.49;101913.25;4959299;29;20028;-94
2022/10/06 03:13:48;;;;;;;45.95;17.17;;;;;;;13.48;71.98;101840.00;4958699;28;20479;-93
2022/10/06 03:16:38;;;;;;;382.80;38.85;;;;;;;13.77;72.35;101876.53;4959019;28;20118;-92
2022/10/06 03:19:05;;;;;;;49.65;14.27;;;;;;;13.73;72.64;101880.44;4923815;29;20051;-92
2022/10/06 03:21:36;;;;;;;28.92;13.60;;;;;;;13.44;72.40;101816.88;4925983;29;20040;-92
2022/10/06 03:24:02;;;;;;;21.80;14.02;;;;;;;14.11;72.41;101929.84;4923542;29;20056;-92
2022/10/06 03:26:33;;;;;;;25.10;14.90;;;;;;;14.12;71.97;101923.47;4919961;29;20040;-94
2022/10/06 03:28:59;;;;;;;22.15;14.77;;;;;;;14.19;72.03;101924.69;4903242;29;20046;-94
2022/10/06 03:31:26;;;;;;;27.02;16.15;;;;;;;14.29;71.80;101948.34;4903912;29;20064;-93
2022/10/06 03:33:53;;;;;;;53.25;19.33;;;;;;;13.53;71.39;101810.78;4904577;29;20139;-94
2022/10/06 03:36:20;;;;;;;36.35;19.55;;;;;;;14.32;71.18;101948.13;4924383;29;20046;-91
2022/10/06 03:38:46;;;;;;;72.95;21.40;;;;;;;13.87;71.19;101861.34;4923236;29;20032;-93
2022/10/06 03:41:16;;;;;;;43.83;18.42;;;;;;;14.17;71.06;101913.13;4924686;29;20543;-92
2022/10/06 03:43:43;;;;;;;54.53;18.60;;;;;;;14.26;70.60;101949.44;4918962;29;20048;-93
2022/10/06 03:46:14;;;;;;;31.02;16.80;;;;;;;13.43;70.76;101805.19;4923875;29;20044;-93
2022/10/06 03:48:40;;;;;;;35.38;15.80;;;;;;;14.18;70.92;101941.94;4921637;29;20040;-93
2022/10/06 03:51:10;;;;;;;29.38;15.20;;;;;;;13.42;70.92;101835.06;4911224;29;20068;-85
2022/10/06 03:53:36;;;;;;;34.03;18.10;;;;;;;13.78;70.88;101889.09;4935759;29;20048;-91
2022/10/06 03:56:07;;;;;;;65.85;18.10;;;;;;;13.94;71.09;101932.94;4937148;29;20040;-90
2022/10/06 03:58:35;;;;;;;49.45;16.02;;;;;;;13.93;71.38;101919.53;4951983;29;20047;-84
2022/10/06 04:01:04;;;;;;;31.80;15.23;;;;;;;13.94;71.31;101943.75;4938282;29;20035;-83
2022/10/06 04:03:31;;;;;;;40.20;15.00;;;;;;;13.95;71.61;101934.66;4936213;29;20462;-81
2022/10/06 04:05:58;;;;;;;26.60;12.50;;;;;;;13.81;71.68;101915.91;4936118;29;20392;-83
2022/10/06 04:08:24;;;;;;;27.52;12.82;;;;;;;13.69;71.78;101897.88;4934528;29;20402;-82
2022/10/06 04:10:50;;;;;;;36.22;14.05;;;;;;;13.70;71.79;101902.28;4936008;29;20063;-86
2022/10/06 04:13:20;;;;;;;51.70;17.30;;;;;;;14.01;71.82;101949.56;4936008;29;20035;-86
2022/10/06 04:15:46;;;;;;;179.00;24.58;;;;;;;13.52;71.58;101866.69;4936854;29;20058;-83
2022/10/06 04:18:13;;;;;;;88.93;20.13;;;;;;;13.78;71.73;101916.13;4936455;29;20031;-85
2022/10/06 04:20:39;;;;;;;48.33;24.63;;;;;;;13.85;71.32;101939.03;4934364;29;20133;-83
2022/10/06 04:23:05;;;;;;;69.63;29.20;;;;;;;13.15;71.40;101837.94;4935679;29;20068;-85
2022/10/06 04:25:31;;;;;;;92.90;37.38;;;;;;;13.61;71.41;101903.84;4955112;28;20059;-84
2022/10/06 04:27:57;;;;;;;120.63;54.13;;;;;;;13.66;71.70;101944.09;4952975;29;20430;-79
2022/10/06 04:30:25;;;;;;;951.65;119.43;;;;;;;13.68;71.57;101935.84;4953538;29;20113;-78
2022/10/06 04:32:51;;;;;;;155.73;65.30;;;;;;;13.57;71.04;101901.50;4953166;29;20016;-78
2022/10/06 04:35:17;;;;;;;185.88;73.72;;;;;;;13.85;70.46;101962.53;4955853;29;20035;-84
2022/10/06 04:37:42;;;;;;;176.60;74.05;;;;;;;13.63;70.52;101912.72;4954724;29;20122;-85
2022/10/06 04:40:08;;;;;;;251.20;82.05;;;;;;;13.74;70.73;101941.66;4952429;29;20071;-85
2022/10/06 04:42:35;;;;;;;193.23;75.22;;;;;;;13.82;70.38;101950.06;4955149;29;20070;-85
2022/10/06 04:45:00;;;;;;;182.68;80.05;;;;;;;13.79;70.54;101942.19;4951617;29;20090;-84
2022/10/06 04:47:26;;;;;;;197.68;102.10;;;;;;;13.84;70.55;101955.38;4954059;28;20027;-81
2022/10/06 04:49:51;;;;;;;345.85;129.00;;;;;;;13.60;69.96;101909.38;4955804;29;20034;-86
2022/10/06 04:52:17;;;;;;;328.58;147.73;;;;;;;13.44;69.75;101897.97;4955923;29;20352;-84
2022/10/06 04:54:42;;;;;;;299.45;147.18;;;;;;;13.65;69.79;101934.22;4957466;29;20043;-85
2022/10/06 04:57:08;;;;;;;483.35;158.02;;;;;;;13.45;69.90;101897.00;4954788;29;20019;-82
2022/10/06 05:02:18;;;;;;;375.52;159.57;;;;;;;13.78;70.13;101963.94;4955017;29;20060;-80
2022/10/06 05:04:44;;;;;;;366.77;179.00;;;;;;;13.84;69.87;101961.66;4956355;29;20047;-81
2022/10/06 05:07:09;;;;;;;411.40;201.10;;;;;;;13.83;69.30;101957.22;4955054;29;20119;-82
2022/10/06 05:09:35;;;;;;;441.27;206.20;;;;;;;13.82;69.14;101950.06;4954657;29;20030;-80
2022/10/06 05:12:00;;;;;;;365.63;203.73;;;;;;;13.84;68.33;101958.09;4976625;28;20019;-83
2022/10/06 05:14:26;;;;;;;345.00;201.63;;;;;;;13.71;67.96;101958.13;4977198;28;20031;-81
2022/10/06 05:16:51;;;;;;;383.92;200.48;;;;;;;13.49;68.06;101923.66;4977693;28;20687;-83
2022/10/06 05:19:16;;;;;;;382.92;194.02;;;;;;;13.68;67.87;101949.34;4947982;29;20043;-80
2022/10/06 05:21:42;;;;;;;327.05;184.80;;;;;;;13.84;67.56;101969.78;4950193;29;20042;-77
2022/10/06 05:24:08;;;;;;;329.35;178.35;;;;;;;13.84;67.56;101964.34;4951723;28;20047;-76
2022/10/06 05:26:34;;;;;;;340.23;180.68;;;;;;;13.78;67.42;101970.22;4954037;28;20167;-79
2022/10/06 05:29:00;;;;;;;317.17;177.57;;;;;;;13.85;67.45;101966.06;4953535;28;20027;-79
2022/10/06 05:31:28;;;;;;;380.55;179.23;;;;;;;13.79;67.38;101941.34;4951521;28;20109;-85
2022/10/06 05:33:55;;;;;;;290.60;162.68;;;;;;;13.97;67.21;101970.59;4952258;29;20122;-86
2022/10/06 05:36:24;;;;;;;368.05;169.75;;;;;;;14.00;67.36;101959.53;4953771;28;20073;-86
2022/10/06 05:38:49;;;;;;;349.05;171.60;;;;;;;14.10;67.64;101976.78;4951821;29;20769;-85
2022/10/06 05:41:20;;;;;;;285.67;163.60;;;;;;;13.77;67.37;101919.81;4951711;28;20124;-81
2022/10/06 05:43:47;;;;;;;252.00;156.48;;;;;;;13.41;67.46;101882.84;4951440;29;20507;-82
2022/10/06 05:46:19;;;;;;;266.00;162.35;;;;;;;13.75;67.87;101927.19;4952111;29;21056;-85
2022/10/06 05:48:49;;;;;;;276.98;155.30;;;;;;;13.80;67.79;101922.28;4951010;29;20062;-81
2022/10/06 05:51:16;;;;;;;274.42;152.98;;;;;;;14.11;67.22;101970.41;4949381;29;20023;-79
2022/10/06 05:53:43;;;;;;;242.13;142.55;;;;;;;14.25;67.21;101968.53;4950999;28;20031;-84
2022/10/06 05:56:14;;;;;;;252.45;138.23;;;;;;;13.91;67.06;101900.69;4951913;29;20494;-81
2022/10/06 05:58:42;;;;;;;250.27;140.60;;;;;;;14.30;66.86;101947.38;4950764;29;20031;-76
2022/10/06 06:01:13;;;;;;;243.25;136.85;;;;;;;14.45;66.46;101966.06;4951570;29;20043;-86
2022/10/06 06:03:41;;;;;;;247.50;137.98;;;;;;;14.59;66.21;101979.41;4949167;29;20057;-76
2022/10/06 06:06:22;;;;;;;228.50;129.18;;;;;;;14.37;66.19;101932.44;4951119;28;20062;-78
2022/10/06 06:08:52;;;;;;;216.70;119.03;;;;;;;14.65;66.06;101978.06;4951723;28;20027;-87
2022/10/06 06:11:17;;;;;;;237.90;119.50;;;;;;;14.53;65.30;101954.63;4951577;28;20035;-89
2022/10/06 06:13:42;;;;;;;223.32;123.03;;;;;;;14.52;65.81;101940.25;4966091;28;20031;-80
2022/10/06 06:16:14;;;;;;;225.95;119.93;;;;;;;14.74;65.42;101966.50;4951289;29;20035;-92
2022/10/06 06:18:41;;;;;;;209.10;121.85;;;;;;;14.83;65.21;101982.03;4952121;28;20031;-83
2022/10/06 06:21:08;;;;;;;210.52;127.65;;;;;;;14.84;65.26;101972.94;4953380;29;20087;-81
2022/10/06 06:23:40;;;;;;;274.08;130.95;;;;;;;14.90;65.49;101988.72;4955111;29;20134;-81
2022/10/06 06:26:08;;;;;;;231.55;133.57;;;;;;;14.82;65.73;101947.84;4955462;28;20503;-80
2022/10/06 06:28:35;;;;;;;227.60;134.45;;;;;;;14.77;65.59;101939.19;4959939;28;20022;-81
2022/10/06 06:31:10;;;;;;;236.27;141.05;;;;;;;14.99;65.91;101971.75;4976049;28;20047;-84
2022/10/06 06:33:37;;;;;;;238.77;141.57;;;;;;;15.03;65.57;101965.13;4976609;28;20083;-83
2022/10/06 06:36:27;;;;;;;228.70;132.93;;;;;;;15.11;65.76;101964.50;4964315;28;20091;-82
2022/10/06 06:38:55;;;;;;;240.38;129.23;;;;;;;15.16;65.47;101956.88;4951002;29;20400;-81
2022/10/06 06:41:23;;;;;;;193.23;110.45;;;;;;;15.34;65.72;101976.22;4951212;29;20150;-90
2022/10/06 06:43:49;;;;;;;183.98;95.82;;;;;;;15.30;65.14;101947.63;4950094;29;20114;-82
2022/10/06 06:46:17;;;;;;;149.75;92.05;;;;;;;15.43;65.06;101942.94;4951290;28;20414;-83
2022/10/06 06:48:43;;;;;;;175.90;96.70;;;;;;;15.62;64.83;101970.34;4952450;28;20046;-85
2022/10/06 06:51:10;;;;;;;172.85;98.80;;;;;;;15.45;64.57;101936.41;4956925;29;20035;-84
2022/10/06 06:53:37;;;;;;;158.50;93.65;;;;;;;15.87;64.00;101975.47;4959567;29;20062;-82
2022/10/06 06:56:03;;;;;;;177.80;101.47;;;;;;;16.00;63.80;101984.34;4958234;29;20027;-83
2022/10/06 06:58:29;;;;;;;175.77;95.05;;;;;;;16.05;63.33;101984.84;4954439;29;20041;-88
2022/10/06 07:01:03;;;;;;;158.05;90.07;;;;;;;16.12;63.55;101969.75;4953879;29;20054;-84
2022/10/06 07:03:29;;;;;;;165.07;87.20;;;;;;;16.00;62.92;101938.19;4956188;28;20042;-82
2022/10/06 07:06:07;;;;;;;186.32;95.32;;;;;;;16.29;62.44;101977.34;4953964;29;20030;-82
2022/10/06 07:08:34;;;;;;;165.43;93.15;;;;;;;16.23;62.03;101945.28;4954054;28;20037;-83
2022/10/06 07:11:10;;;;;;;171.85;94.75;;;;;;;16.40;62.17;101945.69;4954122;28;20482;-85
2022/10/06 07:13:35;;;;;;;178.43;97.30;;;;;;;16.58;61.45;101960.47;4955469;28;20035;-86
2022/10/06 07:27:14;;;;;;;167.85;87.57;;;;;;;16.79;59.83;101931.44;4899744;29;20082;-85
2022/10/06 07:29:40;;;;;;;155.18;81.80;;;;;;;16.93;59.85;101952.88;4913310;29;20044;-86
2022/10/06 07:32:05;;;;;;;146.98;80.05;;;;;;;16.81;59.71;101919.47;4915002;29;20507;-81
2022/10/06 07:34:31;;;;;;;145.32;76.72;;;;;;;17.11;59.25;101953.97;4912827;29;20036;-82
2022/10/06 07:36:56;;;;;;;120.53;64.05;;;;;;;17.19;58.44;101956.88;4914110;29;20043;-81
2022/10/06 07:39:22;;;;;;;120.07;58.42;;;;;;;17.24;58.09;101962.78;4915734;29;20048;-82
2022/10/06 07:41:48;;;;;;;123.32;55.50;;;;;;;17.23;57.77;101941.16;4917312;29;20036;-86
2022/10/06 07:44:13;;;;;;;103.70;46.42;;;;;;;17.46;57.77;101963.59;4917605;29;20128;-84
2022/10/06 07:46:38;;;;;;;109.47;47.80;;;;;;;17.57;57.87;101960.78;4923710;29;20056;-89
2022/10/06 07:49:04;;;;;;;113.50;44.85;;;;;;;17.71;57.56;101965.84;4939074;29;20036;-84
2022/10/06 07:51:30;;;;;;;77.78;39.30;;;;;;;17.60;57.50;101917.00;4938235;29;20063;-85
2022/10/06 07:53:55;;;;;;;71.05;36.10;;;;;;;17.70;56.86;101912.44;4912042;29;20036;-82
2022/10/06 07:56:21;;;;;;;88.80;34.45;;;;;;;18.11;56.29;101955.78;4912538;29;20040;-86
2022/10/06 07:58:47;;;;;;;150.68;35.72;;;;;;;17.98;56.46;101918.94;4926371;29;20051;-84
2022/10/06 08:01:15;;;;;;;87.38;29.10;;;;;;;17.71;55.68;101837.94;4934884;29;20035;-85
2022/10/06 08:03:42;;;;;;;132.45;30.08;;;;;;;18.49;55.23;101954.97;4934232;29;20031;-86
2022/10/06 08:06:13;;;;;;;158.25;27.65;;;;;;;18.64;54.70;101953.53;4934112;29;20119;-84
2022/10/06 08:08:39;;;;;;;39.65;16.30;;;;;;;18.71;53.87;101940.19;4934499;29;20611;-88
2022/10/06 08:11:06;;;;;;;31.92;13.20;;;;;;;18.88;52.84;101956.66;4933999;29;20028;-85
2022/10/06 08:13:38;;;;;;;32.38;16.05;;;;;;;19.02;52.65;101949.88;4934812;29;20102;-88
2022/10/06 08:16:05;;;;;;;375.38;32.88;;;;;;;19.15;52.46;101952.28;4935961;29;20388;-84
2022/10/06 08:18:31;;;;;;;41.92;10.35;;;;;;;19.11;51.48;101924.44;4941185;29;20039;-82
2022/10/06 08:20:57;;;;;;;17.48;5.93;;;;;;;18.75;49.37;101862.56;4955279;28;20050;-84
2022/10/06 08:23:23;;;;;;;11.32;4.57;;;;;;;19.19;49.30;101901.88;4953091;28;20090;-83
2022/10/06 08:25:57;;;;;;;31.55;6.07;;;;;;;19.50;48.89;101934.25;4953156;28;20183;-83
2022/10/06 08:28:23;;;;;;;18.60;5.32;;;;;;;19.61;48.82;101916.81;4953222;28;20027;-81
2022/10/06 08:30:51;;;;;;;401.85;30.40;;;;;;;19.66;47.05;101917.22;4953268;28;20034;-83
2022/10/06 08:33:16;;;;;;;54.50;5.72;;;;;;;19.57;46.36;101907.19;4952859;28;20611;-85
2022/10/06 08:35:42;;;;;;;14.05;3.95;;;;;;;19.71;45.58;101901.22;4953303;28;20023;-89
2022/10/06 08:38:07;;;;;;;19.00;3.17;;;;;;;19.91;44.63;101929.25;4952990;29;20028;-87
2022/10/06 08:40:33;;;;;;;45.65;5.10;;;;;;;20.02;44.84;101910.81;4954843;28;20030;-84
2022/10/06 08:43:01;;;;;;;24.90;9.13;;;;;;;20.23;44.73;101921.41;4952922;28;20422;-85
2022/10/06 08:45:38;;;;;;;25.88;3.92;;;;;;;20.11;44.58;101881.69;4955607;28;20043;-85
2022/10/06 08:48:13;;;;;;;35.38;4.63;;;;;;;20.15;44.68;101849.47;4954627;28;20027;-84
2022/10/06 08:51:18;;;;;;;59.60;5.70;;;;;;;20.64;44.04;101923.53;4954168;28;20161;-82
2022/10/06 08:54:09;;;;;;;53.78;5.55;;;;;;;20.36;41.69;101908.28;4912130;29;20179;-82
2022/10/06 08:56:50;;;;;;;24.55;3.58;;;;;;;20.26;42.39;101910.22;4914332;29;20131;-84
2022/10/06 08:59:16;;;;;;;323.20;19.85;;;;;;;20.18;43.18;101871.88;4916871;29;20067;-83
2022/10/06 09:01:46;;;;;;;89.43;6.38;;;;;;;20.26;43.69;101857.44;4886057;29;20480;-83
2022/10/06 09:04:32;;;;;;;48.13;3.65;;;;;;;20.53;43.00;101903.78;4918653;29;20058;-82
2022/10/06 09:07:06;;;;;;;37.03;3.63;;;;;;;20.39;42.63;101907.94;4935222;28;20032;-87
2022/10/06 09:09:40;;;;;;;711.55;58.75;;;;;;;20.41;42.75;101902.31;4936365;28;20043;-82
2022/10/06 09:12:38;;;;;;;116.43;7.72;;;;;;;20.61;42.92;101907.44;4928154;28;20058;-86
2022/10/06 09:15:21;;;;;;;96.25;5.43;;;;;;;20.77;42.24;101911.31;4915522;29;20124;-86
2022/10/06 09:18:07;;;;;;;;;;;;;;;;;;;;;
2022/10/06 09:20:41;;;;;;;61.33;6.53;;;;;;;21.13;42.33;101915.69;4880380;29;20051;-82
2022/10/06 09:23:14;;;;;;;34.45;3.83;;;;;;;21.02;41.64;101878.50;4912140;29;20031;-83
2022/10/06 09:25:39;;;;;;;28.92;3.63;;;;;;;21.26;41.46;101888.75;4911835;29;20164;-84
2022/10/06 09:28:14;;;;;;;208.43;12.90;;;;;;;21.49;40.44;101914.53;4911459;29;20036;-82
2022/10/06 09:30:41;;;;;;;80.68;6.07;;;;;;;21.22;40.17;101917.47;4924164;29;20086;-80
2022/10/06 09:33:19;;;;;;;190.98;13.57;;;;;;;20.99;40.88;101878.81;4932449;29;20036;-80
2022/10/06 09:36:08;;;;;;;70.13;6.07;;;;;;;21.28;40.69;101905.88;4932468;29;20074;-80
2022/10/06 09:38:52;;;;;;;37.35;4.05;;;;;;;21.28;40.48;101911.34;4932644;29;20032;-82
2022/10/06 09:41:21;;;;;;;100.13;6.85;;;;;;;21.12;40.37;101909.38;4932354;29;20542;-80
2022/10/06 09:43:59;;;;;;;79.50;6.05;;;;;;;21.22;40.57;101912.00;4931984;29;20056;-78
2022/10/06 09:46:33;;;;;;;31.95;4.20;;;;;;;21.31;40.95;101900.06;4932698;29;20115;-80
2022/10/06 09:49:11;;;;;;;142.00;9.27;;;;;;;21.19;40.63;101867.69;4938757;29;20496;-80
2022/10/06 09:51:37;;;;;;;15.90;2.83;;;;;;;21.34;40.43;101904.38;4933040;29;20047;-82
2022/10/06 09:54:13;;;;;;;38.83;4.43;;;;;;;21.29;40.20;101907.56;4932346;29;20031;-83
2022/10/06 09:56:43;;;;;;;162.90;13.00;;;;;;;20.95;39.55;101877.41;4932375;29;20167;-81
2022/10/06 09:59:21;;;;;;;43.22;10.13;;;;;;;20.86;40.10;101866.59;4932002;29;20527;-81
2022/10/06 10:01:54;;;;;;;113.93;31.55;;;;;;;21.08;40.78;101887.94;4932352;29;20043;-82
2022/10/06 10:04:31;;;;;;;150.30;10.80;;;;;;;21.35;40.27;101890.50;4932016;29;20715;-80
2022/10/06 10:07:13;;;;;;;51.53;11.93;;;;;;;21.26;40.09;101879.66;4932306;29;20032;-80
2022/10/06 10:09:40;;;;;;;547.13;40.13;;;;;;;21.19;40.47;101890.44;4932203;29;20039;-83
2022/10/06 10:14:58;;;;;;;23.85;6.40;;;;;;;21.69;41.16;101891.31;4932712;29;20036;-79
2022/10/06 10:17:23;;;;;;;9.73;2.08;;;;;;;21.88;40.11;101884.72;4934656;29;20023;-82
2022/10/06 10:19:53;;;;;;;739.67;60.50;;;;;;;21.70;39.56;101879.34;4953002;29;20121;-82
2022/10/06 10:22:39;;;;;;;47.38;4.78;;;;;;;21.51;39.81;101885.09;4957442;28;20031;-84
2022/10/06 10:25:43;;;;;;;46.35;5.70;;;;;;;21.61;39.66;101883.09;4980090;28;20055;-84
2022/10/06 10:28:29;;;;;;;76.07;12.95;;;;;;;21.52;40.21;101837.53;4979757;28;20054;-84
2022/10/06 10:31:04;;;;;;;119.13;24.85;;;;;;;22.05;40.09;101877.38;4966116;28;20117;-84
2022/10/06 10:33:43;;;;;;;20.33;4.30;;;;;;;21.93;38.40;101845.84;4954614;29;20019;-84
2022/10/06 10:36:13;;;;;;;47.67;16.48;;;;;;;22.35;38.70;101870.41;4955131;28;20498;-84
2022/10/06 10:38:41;;;;;;;39.42;6.22;;;;;;;22.57;38.07;101867.81;4955549;29;20027;-84
2022/10/06 10:41:22;;;;;;;89.90;15.00;;;;;;;22.90;38.22;101854.09;4955233;29;20055;-86
2022/10/06 10:43:54;;;;;;;121.85;13.70;;;;;;;23.13;36.93;101868.78;4954702;28;20030;-84
2022/10/06 10:46:28;;;;;;;61.83;5.03;;;;;;;22.69;36.74;101871.09;4954706;29;20043;-86
2022/10/06 10:49:00;;;;;;;123.63;9.05;;;;;;;22.40;37.05;101844.19;4954325;28;20266;-81
2022/10/06 10:51:48;;;;;;;129.90;26.77;;;;;;;22.40;37.12;101843.31;4953280;29;20454;-79
2022/10/06 10:54:14;;;;;;;91.70;20.38;;;;;;;22.62;37.80;101868.16;4953428;29;20039;-80
2022/10/06 10:56:40;;;;;;;90.03;8.77;;;;;;;22.45;37.10;101833.53;4953642;29;20023;-77
2022/10/06 10:59:11;;;;;;;47.53;5.60;;;;;;;22.58;38.25;101852.22;4953245;28;20110;-80
2022/10/06 11:01:46;;;;;;;52.78;8.73;;;;;;;22.55;37.58;101831.50;4953011;28;20027;-81
2022/10/06 11:04:13;;;;;;;255.85;48.63;;;;;;;22.73;38.17;101814.84;4953304;28;20035;-82
2022/10/06 11:06:53;;;;;;;127.32;36.72;;;;;;;22.84;37.98;101835.59;4954000;29;20028;-78
2022/10/06 11:09:30;;;;;;;74.93;10.60;;;;;;;22.91;36.67;101842.94;4953536;29;20110;-80
2022/10/06 11:12:23;;;;;;;158.00;14.23;;;;;;;22.86;36.72;101831.63;4952790;29;20031;-76
2022/10/06 11:14:58;;;;;;;139.30;23.83;;;;;;;22.96;36.78;101831.44;4953730;29;20054;-77
2022/10/06 11:17:39;;;;;;;122.93;13.13;;;;;;;22.83;36.95;101793.56;4957643;29;20037;-76
2022/10/06 11:20:28;;;;;;;51.03;7.53;;;;;;;23.09;36.49;101824.34;4953767;29;20031;-82
2022/10/06 11:23:35;;;;;;;64.10;4.75;;;;;;;22.87;36.21;101818.78;4953506;29;20031;-82
2022/10/06 11:26:08;;;;;;;20.70;2.72;;;;;;;22.51;37.11;101791.72;4913044;29;20064;-79
2022/10/06 11:29:01;;;;;;;117.97;7.50;;;;;;;22.63;37.49;101817.75;4912819;29;20034;-78
2022/10/06 11:31:37;;;;;;;57.30;4.32;;;;;;;22.73;36.40;101812.97;4912588;29;20056;-79
2022/10/06 11:34:05;;;;;;;28.48;3.65;;;;;;;22.88;36.43;101814.97;4913740;29;20615;-79
2022/10/06 11:36:51;;;;;;;16.33;2.33;;;;;;;22.77;35.51;101806.13;4913621;29;20052;-81
2022/10/06 11:39:26;;;;;;;19.33;2.47;;;;;;;22.30;35.32;101776.84;4913990;29;20036;-78
2022/10/06 11:42:14;;;;;;;5.85;1.95;;;;;;;22.14;37.76;101816.94;4926441;29;20044;-81